ダラス/フォートワース の空港の天気 - METARとTAF

ダラス・フォートワース国際空港 ( KDFW / DFW ) - アメリカ テキサス州ダラス & フォートワース
飛行場実況気象(Metar)
観測時間07/12 10:53 CDT (07/12 15:53 UTC)
風向・風速西南西 4m/s
視程10km以上
天気現象
少しの雲 雲底高度 3050m
全天の4割程度の雲 雲底高度 6400m
全天の4割程度の雲 雲底高度 9140m
気温30.6℃
湿度53%
気圧1011.9hPa
METARKDFW 121553Z 24007KT 10SM FEW100 SCT210 SCT300 31/20 A2991 RMK AO2 SLP119 T03060200
過去の天気等 Google飛行場航空写真 Wunderground天気予報

過去48時間のMETAR

飛行場予報(TAF)
発表時間: 7/12 09:52 CDT (7/12 14:52 UTC)
予報対象時間: 12日10時 CDT ~ 13日13時 CDT
風向・風速南西 5m/s
視程10km以上
少しの雲 雲底高度 3050m
全天の8割程度の雲 雲底高度 7620m
12日21時 CDT から
風向・風速南南東 4m/s
視程10km以上
少しの雲 雲底高度 7620m
13日10時 CDT から
風向・風速南 6m/s
視程10km以上
少しの雲 雲底高度 7620m
KDFW 121452Z 1215/1318 22010KT P6SM FEW100 BKN250
FM130200 15007KT P6SM FEW250
FM131500 19011KT P6SM FEW250